createdAt,value
2022-09-30T00:01:05.758Z,91.26
2022-09-30T00:03:36.065Z,91.28
2022-09-30T00:06:08.687Z,91.49
2022-09-30T00:08:41.369Z,91.43
2022-09-30T00:11:14.858Z,91.41
2022-09-30T00:13:44.644Z,91.71
2022-09-30T00:16:15.251Z,91.53
2022-09-30T00:18:45.913Z,91.76
2022-09-30T00:21:16.834Z,91.63
2022-09-30T00:23:49.029Z,91.87
2022-09-30T00:26:21.776Z,92.01
2022-09-30T00:28:53.405Z,91.99
2022-09-30T00:31:25.077Z,92.06
2022-09-30T00:34:09.481Z,92.14
2022-09-30T00:36:43.618Z,92.28
2022-09-30T00:39:16.423Z,92.27
2022-09-30T00:41:46.893Z,91.82
2022-09-30T00:44:48.079Z,91.84
2022-09-30T00:47:50.128Z,92.02
2022-09-30T00:50:38.788Z,92.25
2022-09-30T00:53:13.325Z,92.26
2022-09-30T00:55:49.949Z,92.31
2022-09-30T00:58:22.606Z,92.39
2022-09-30T01:00:53.429Z,92.34
2022-09-30T01:03:25.564Z,92.50
2022-09-30T01:05:55.564Z,92.58
2022-09-30T01:08:26.104Z,92.58
2022-09-30T01:10:58.291Z,92.61
2022-09-30T01:13:32.066Z,93.04
2022-09-30T01:16:19.173Z,92.85
2022-09-30T01:18:59.682Z,93.01
2022-09-30T01:21:56.499Z,92.84
2022-09-30T01:25:02.199Z,92.93
2022-09-30T01:28:13.368Z,93.05
2022-09-30T01:31:04.397Z,93.00
2022-09-30T01:33:40.870Z,92.91
2022-09-30T01:36:22.372Z,93.10
2022-09-30T01:38:56.801Z,93.02
2022-09-30T01:41:30.181Z,92.98
2022-09-30T01:44:07.121Z,93.46
2022-09-30T01:46:44.213Z,93.38
2022-09-30T01:49:20.508Z,93.42
2022-09-30T01:51:56.170Z,93.30
2022-09-30T01:54:30.573Z,93.44
2022-09-30T01:57:05.010Z,93.53
2022-09-30T01:59:37.507Z,93.69
2022-09-30T02:02:15.307Z,93.78
2022-09-30T02:04:46.702Z,93.94
2022-09-30T02:07:20.473Z,93.64
2022-09-30T02:09:53.337Z,93.70
2022-09-30T02:12:25.470Z,93.92
2022-09-30T02:15:00.011Z,93.72
2022-09-30T02:17:34.304Z,93.87
2022-09-30T02:20:04.553Z,93.70
2022-09-30T02:22:44.868Z,93.76
2022-09-30T02:25:20.478Z,93.58
2022-09-30T02:27:53.509Z,93.53
2022-09-30T02:30:23.050Z,93.81
2022-09-30T02:32:58.439Z,93.98
2022-09-30T02:35:30.212Z,93.93
2022-09-30T02:38:05.774Z,94.19
2022-09-30T02:40:40.019Z,94.27
2022-09-30T02:43:09.374Z,94.04
2022-09-30T02:45:44.554Z,94.03
2022-09-30T02:48:26.439Z,93.89
2022-09-30T02:50:57.633Z,94.04
2022-09-30T02:53:30.127Z,94.20
2022-09-30T02:56:09.256Z,94.02
2022-09-30T02:58:39.661Z,94.10
2022-09-30T03:01:10.146Z,94.46
2022-09-30T03:03:45.049Z,94.33
2022-09-30T03:06:15.215Z,94.67
2022-09-30T03:08:44.768Z,94.49
2022-09-30T03:11:17.978Z,94.78
2022-09-30T03:14:17.384Z,94.73
2022-09-30T03:17:01.169Z,94.52
2022-09-30T03:19:42.632Z,94.41
2022-09-30T03:22:34.011Z,94.27
2022-09-30T03:25:18.574Z,94.35
2022-09-30T03:27:51.877Z,94.67
2022-09-30T03:30:24.685Z,94.50
2022-09-30T03:33:04.828Z,94.61
2022-09-30T03:35:46.889Z,94.56
2022-09-30T03:38:20.071Z,94.44
2022-09-30T03:40:54.903Z,94.36
2022-09-30T03:43:28.424Z,94.73
2022-09-30T03:46:05.377Z,94.71
2022-09-30T03:48:36.250Z,94.86
2022-09-30T03:51:08.962Z,94.68
2022-09-30T03:53:41.297Z,94.79
2022-09-30T03:56:10.820Z,94.84
2022-09-30T03:58:44.026Z,94.68
2022-09-30T04:01:21.856Z,94.63
2022-09-30T04:03:52.476Z,94.74
2022-09-30T04:06:26.233Z,95.05
2022-09-30T04:08:56.592Z,94.84
2022-09-30T04:11:26.134Z,94.78
2022-09-30T04:13:55.632Z,95.00
2022-09-30T04:16:25.561Z,94.77
2022-09-30T04:18:56.770Z,94.65
2022-09-30T04:21:29.722Z,94.52
2022-09-30T04:23:59.365Z,94.44
2022-09-30T04:26:28.933Z,94.65
2022-09-30T04:28:58.855Z,94.66
2022-09-30T04:31:28.562Z,95.02
2022-09-30T04:33:59.706Z,95.02
2022-09-30T04:36:31.975Z,95.02
2022-09-30T04:39:01.697Z,94.90
2022-09-30T04:41:32.373Z,94.87
2022-09-30T04:44:06.139Z,94.62
2022-09-30T04:46:36.968Z,94.64
2022-09-30T04:49:09.330Z,94.84
2022-09-30T04:51:46.074Z,94.69
2022-09-30T04:54:16.929Z,94.90
2022-09-30T04:56:46.441Z,94.85
2022-09-30T04:59:16.032Z,95.22
2022-09-30T05:01:45.726Z,95.27
2022-09-30T05:04:16.259Z,95.12
2022-09-30T05:06:49.711Z,95.31
2022-09-30T05:09:19.280Z,95.19
2022-09-30T05:11:48.898Z,94.93
2022-09-30T05:14:18.514Z,94.93
2022-09-30T05:16:48.065Z,95.06
2022-09-30T05:19:17.607Z,95.27
2022-09-30T05:21:49.861Z,95.17
2022-09-30T05:24:19.399Z,95.12
2022-09-30T05:26:48.919Z,95.40
2022-09-30T05:29:18.490Z,95.30
2022-09-30T05:31:48.179Z,95.09
2022-09-30T05:34:18.093Z,95.41
2022-09-30T05:36:50.270Z,95.17
2022-09-30T05:39:19.982Z,95.40
2022-09-30T05:41:49.569Z,95.42
2022-09-30T05:44:19.259Z,95.55
2022-09-30T05:46:48.878Z,95.47
2022-09-30T05:49:18.552Z,95.50
2022-09-30T05:51:50.721Z,95.57
2022-09-30T05:54:20.416Z,95.53
2022-09-30T05:56:49.960Z,95.57
2022-09-30T05:59:20.012Z,95.48
2022-09-30T06:01:49.746Z,95.56
2022-09-30T06:04:19.549Z,95.33
2022-09-30T06:06:51.684Z,95.61
2022-09-30T06:09:21.296Z,95.47
2022-09-30T06:11:50.916Z,95.57
2022-09-30T06:14:22.955Z,95.72
2022-09-30T06:16:52.581Z,95.54
2022-09-30T06:19:22.340Z,95.68
2022-09-30T06:21:54.626Z,95.79
2022-09-30T06:24:24.145Z,95.62
2022-09-30T06:26:54.383Z,95.76
2022-09-30T06:29:23.995Z,95.71
2022-09-30T06:31:53.796Z,95.64
2022-09-30T06:34:23.604Z,95.55
2022-09-30T06:36:55.787Z,95.77
2022-09-30T06:39:27.161Z,95.78
2022-09-30T06:41:56.756Z,95.68
2022-09-30T06:44:28.889Z,95.39
2022-09-30T06:46:58.733Z,95.17
2022-09-30T06:49:38.370Z,95.02
2022-09-30T06:52:15.778Z,94.85
2022-09-30T06:54:45.361Z,94.52
2022-09-30T06:57:14.915Z,93.68
2022-09-30T06:59:45.877Z,91.96
2022-09-30T07:15:54.261Z,76.43
2022-09-30T07:18:23.813Z,73.19
2022-09-30T07:20:54.312Z,69.51
2022-09-30T07:23:27.115Z,66.72
2022-09-30T07:25:58.885Z,64.05
2022-09-30T07:28:31.443Z,60.95
2022-09-30T07:31:30.829Z,59.03
2022-09-30T07:33:56.758Z,57.80
2022-09-30T07:36:33.239Z,55.33
2022-09-30T07:39:06.323Z,53.84
2022-09-30T07:41:39.032Z,52.19
2022-09-30T07:44:12.897Z,50.71
2022-09-30T07:46:44.971Z,50.59
2022-09-30T07:49:25.492Z,49.77
2022-09-30T07:51:57.198Z,48.39
2022-09-30T07:54:29.242Z,46.85
2022-09-30T07:57:14.922Z,45.19
2022-09-30T07:59:44.878Z,43.81
2022-09-30T08:02:19.130Z,42.49
2022-09-30T08:04:49.010Z,42.57
2022-09-30T08:07:20.646Z,41.34
2022-09-30T08:09:50.236Z,40.68
2022-09-30T08:12:19.860Z,39.83
2022-09-30T08:14:49.313Z,40.10
2022-09-30T08:17:21.385Z,39.11
2022-09-30T08:19:50.857Z,38.95
2022-09-30T08:22:20.872Z,38.49
2022-09-30T08:24:50.435Z,37.95
2022-09-30T08:27:20.823Z,37.40
2022-09-30T08:29:55.190Z,37.16
2022-09-30T08:32:28.786Z,36.42
2022-09-30T08:34:58.208Z,36.75
2022-09-30T08:37:27.690Z,36.33
2022-09-30T08:39:57.146Z,35.36
2022-09-30T08:42:40.568Z,35.01
2022-09-30T08:45:24.471Z,34.77
2022-09-30T08:48:02.175Z,34.93
2022-09-30T08:50:35.619Z,34.88
2022-09-30T08:53:08.445Z,34.19
2022-09-30T08:55:42.772Z,33.82
2022-09-30T08:58:28.490Z,33.16
2022-09-30T09:01:00.432Z,32.81
2022-09-30T09:03:34.256Z,31.80
2022-09-30T09:06:19.378Z,31.40
2022-09-30T09:08:58.174Z,32.13
2022-09-30T09:11:43.341Z,31.59
2022-09-30T09:14:20.767Z,31.82
2022-09-30T09:16:58.638Z,31.67
2022-09-30T09:19:39.737Z,31.61
2022-09-30T09:22:11.452Z,31.74
2022-09-30T09:24:45.242Z,31.14
2022-09-30T09:27:23.518Z,30.40
2022-09-30T09:30:02.610Z,30.53
2022-09-30T09:32:32.223Z,31.39
2022-09-30T09:35:12.609Z,30.95
2022-09-30T09:38:02.976Z,30.66
2022-09-30T09:40:39.250Z,30.42
2022-09-30T09:43:16.819Z,29.79
2022-09-30T09:45:52.490Z,30.09
2022-09-30T09:48:21.979Z,30.03
2022-09-30T09:51:03.358Z,30.09
2022-09-30T09:53:42.787Z,30.04
2022-09-30T09:56:19.037Z,29.95
2022-09-30T09:59:10.320Z,30.56
2022-09-30T10:01:42.157Z,30.86
2022-09-30T10:04:24.727Z,32.38
2022-09-30T10:07:00.022Z,33.59
2022-09-30T10:09:34.727Z,35.43
2022-09-30T10:12:31.570Z,36.68
2022-09-30T10:15:04.233Z,38.09
2022-09-30T10:17:35.425Z,39.79
2022-09-30T10:20:09.013Z,41.24
2022-09-30T10:22:41.071Z,41.88
2022-09-30T10:25:26.118Z,42.55
2022-09-30T10:27:58.121Z,43.60
2022-09-30T10:30:49.212Z,45.08
2022-09-30T10:33:28.983Z,45.35
2022-09-30T10:36:04.072Z,45.77
2022-09-30T10:38:37.380Z,46.19
2022-09-30T10:41:08.345Z,46.38
2022-09-30T10:43:42.823Z,46.57
2022-09-30T10:46:25.973Z,46.54
2022-09-30T10:48:57.535Z,47.22
2022-09-30T10:51:30.538Z,47.29
2022-09-30T10:54:02.788Z,47.75
2022-09-30T10:56:38.391Z,48.00
2022-09-30T10:59:15.906Z,48.34
2022-09-30T11:01:52.580Z,48.64
2022-09-30T11:04:29.215Z,48.88
2022-09-30T11:07:03.702Z,49.28
2022-09-30T11:09:40.868Z,49.62
2022-09-30T11:12:17.721Z,49.33
2022-09-30T11:14:51.661Z,49.35
2022-09-30T11:17:26.860Z,49.25
2022-09-30T11:20:05.804Z,49.76
2022-09-30T11:22:42.075Z,49.73
2022-09-30T11:25:16.335Z,49.75
2022-09-30T11:28:01.545Z,49.32
2022-09-30T11:30:35.846Z,48.90
2022-09-30T11:33:20.330Z,48.77
2022-09-30T11:35:57.037Z,49.06
2022-09-30T11:38:55.065Z,49.03
2022-09-30T11:41:30.627Z,49.07
2022-09-30T11:44:08.283Z,48.73
2022-09-30T11:46:58.300Z,49.42
2022-09-30T11:49:43.079Z,49.38
2022-09-30T11:52:19.165Z,49.24
2022-09-30T11:55:15.504Z,49.09
2022-09-30T11:57:53.895Z,49.39
2022-09-30T12:00:24.040Z,49.14
2022-09-30T12:02:55.925Z,49.19
2022-09-30T12:05:29.273Z,49.06
2022-09-30T12:08:02.744Z,49.23
2022-09-30T12:10:36.096Z,49.21
2022-09-30T12:13:13.952Z,49.53
2022-09-30T12:15:44.792Z,49.35
2022-09-30T12:18:17.004Z,49.00
2022-09-30T12:20:50.648Z,49.18
2022-09-30T12:23:23.748Z,49.27
2022-09-30T12:25:56.180Z,49.68
2022-09-30T12:28:45.954Z,49.87
2022-09-30T12:31:30.670Z,49.76
2022-09-30T12:34:08.187Z,49.50
2022-09-30T12:36:47.774Z,49.70
2022-09-30T12:39:47.352Z,49.51
2022-09-30T12:42:43.717Z,49.00
2022-09-30T12:45:36.587Z,48.93
2022-09-30T12:48:11.855Z,48.90
2022-09-30T12:50:46.529Z,49.06
2022-09-30T12:53:20.752Z,48.78
2022-09-30T12:55:50.518Z,48.82
2022-09-30T12:58:29.835Z,48.76
2022-09-30T13:01:08.284Z,48.95
2022-09-30T13:04:16.863Z,48.29
2022-09-30T13:07:09.709Z,48.53
2022-09-30T13:09:40.896Z,48.58
2022-09-30T13:12:28.162Z,48.05
2022-09-30T13:15:27.858Z,48.43
2022-09-30T13:18:06.230Z,48.34
2022-09-30T13:20:56.516Z,48.42
2022-09-30T13:23:39.061Z,48.14
2022-09-30T13:26:51.211Z,48.17
2022-09-30T13:29:50.069Z,48.28
2022-09-30T13:32:37.327Z,47.86
2022-09-30T13:35:33.359Z,47.60
2022-09-30T13:38:20.136Z,47.24
2022-09-30T13:41:01.783Z,47.74
2022-09-30T13:43:39.085Z,47.56
2022-09-30T13:46:11.343Z,47.08
2022-09-30T13:48:44.855Z,47.49
2022-09-30T13:51:18.793Z,47.45
2022-09-30T13:53:48.907Z,46.99
2022-09-30T13:56:22.242Z,46.73
2022-09-30T13:59:23.227Z,46.66
2022-09-30T14:02:05.045Z,46.00
2022-09-30T14:04:53.415Z,46.03
2022-09-30T14:07:37.689Z,45.88
2022-09-30T14:10:13.946Z,46.33
2022-09-30T14:12:52.753Z,46.12
2022-09-30T14:15:34.583Z,45.82
2022-09-30T14:18:22.967Z,45.49
2022-09-30T14:21:04.127Z,45.27
2022-09-30T14:23:36.629Z,45.18
2022-09-30T14:26:17.097Z,44.79
2022-09-30T14:28:50.733Z,44.99
2022-09-30T14:31:20.364Z,44.80
2022-09-30T14:33:52.096Z,45.28
2022-09-30T14:36:23.336Z,45.38
2022-09-30T14:38:58.992Z,45.30
2022-09-30T14:41:29.653Z,45.13
2022-09-30T14:44:02.916Z,45.55
2022-09-30T14:46:36.213Z,45.16
2022-09-30T14:49:09.638Z,45.31
2022-09-30T14:51:43.308Z,45.46
2022-09-30T14:54:22.374Z,45.65
2022-09-30T14:56:54.535Z,45.74
2022-09-30T14:59:27.201Z,45.86
2022-09-30T15:02:00.861Z,46.06
2022-09-30T15:04:32.857Z,46.49
2022-09-30T15:07:03.475Z,46.72
2022-09-30T15:09:37.979Z,46.81
2022-09-30T15:12:08.363Z,46.91
2022-09-30T15:14:48.835Z,47.12
2022-09-30T15:17:23.353Z,47.47
2022-09-30T15:19:53.459Z,47.71
2022-09-30T15:22:23.549Z,47.98
2022-09-30T15:24:56.587Z,48.31
2022-09-30T15:27:30.146Z,48.22
2022-09-30T15:30:01.323Z,48.43
2022-09-30T15:32:32.797Z,48.54
2022-09-30T15:35:07.925Z,48.83
2022-09-30T15:37:37.507Z,49.05
2022-09-30T15:40:29.069Z,48.80
2022-09-30T15:43:02.829Z,49.16
2022-09-30T15:45:35.787Z,49.46
2022-09-30T15:48:08.925Z,49.69
2022-09-30T15:50:40.395Z,49.81
2022-09-30T15:53:24.235Z,50.15
2022-09-30T15:55:59.106Z,49.94
2022-09-30T15:58:40.425Z,50.25
2022-09-30T16:01:21.597Z,50.33
2022-09-30T16:03:54.350Z,50.61
2022-09-30T16:06:28.175Z,50.65
2022-09-30T16:09:02.265Z,50.83
2022-09-30T16:11:41.160Z,50.73
2022-09-30T16:14:15.180Z,51.25
2022-09-30T16:16:44.517Z,50.92
2022-09-30T16:19:18.898Z,51.44
2022-09-30T16:21:50.894Z,51.57
2022-09-30T16:24:48.156Z,51.63
2022-09-30T16:27:34.013Z,52.23
2022-09-30T16:30:05.028Z,52.22
2022-09-30T16:32:38.490Z,52.38
2022-09-30T16:35:09.776Z,52.86
2022-09-30T16:37:42.931Z,53.19
2022-09-30T16:40:20.798Z,53.20
2022-09-30T16:42:54.896Z,53.56
2022-09-30T16:45:25.303Z,53.22
2022-09-30T16:47:55.975Z,53.54
2022-09-30T16:50:35.540Z,53.42
2022-09-30T16:53:05.102Z,53.60
2022-09-30T16:55:34.901Z,53.86
2022-09-30T16:58:07.383Z,54.57
2022-09-30T17:00:37.247Z,54.86
2022-09-30T17:03:06.808Z,55.24
2022-09-30T17:05:36.378Z,55.53
2022-09-30T17:08:05.977Z,56.04
2022-09-30T17:10:36.638Z,56.32
2022-09-30T17:13:08.777Z,56.83
2022-09-30T17:15:38.856Z,57.21
2022-09-30T17:18:10.492Z,57.43
2022-09-30T17:20:40.710Z,57.84
2022-09-30T17:23:10.344Z,58.00
2022-09-30T17:25:43.812Z,58.15
2022-09-30T17:28:16.273Z,58.41
2022-09-30T17:30:48.027Z,58.63
2022-09-30T17:33:18.801Z,59.18
2022-09-30T17:35:48.340Z,59.46
2022-09-30T17:38:18.026Z,59.68
2022-09-30T17:41:00.012Z,59.91
2022-09-30T17:43:32.146Z,60.34
2022-09-30T17:46:02.145Z,60.30
2022-09-30T17:48:31.743Z,60.60
2022-09-30T17:51:01.697Z,60.76
2022-09-30T17:53:32.020Z,61.26
2022-09-30T17:56:12.355Z,61.34
2022-09-30T17:58:47.268Z,61.51
2022-09-30T18:01:17.701Z,61.62
2022-09-30T18:03:47.727Z,61.87
2022-09-30T18:06:17.436Z,62.05
2022-09-30T18:08:50.857Z,62.14
2022-09-30T18:11:23.411Z,62.34
2022-09-30T18:14:00.544Z,62.70
2022-09-30T18:16:33.543Z,62.99
2022-09-30T18:19:04.713Z,63.53
2022-09-30T18:21:35.704Z,63.67
2022-09-30T18:24:06.894Z,63.74
2022-09-30T18:26:36.950Z,63.85
2022-09-30T18:29:09.347Z,64.16
2022-09-30T18:31:39.648Z,64.33
2022-09-30T18:34:09.602Z,64.45
2022-09-30T18:36:39.712Z,64.43
2022-09-30T18:39:09.256Z,64.30
2022-09-30T18:41:45.805Z,63.98
2022-09-30T18:44:18.292Z,63.30
2022-09-30T18:46:47.807Z,62.99
2022-09-30T18:49:17.345Z,63.17
2022-09-30T18:51:46.939Z,62.43
2022-09-30T18:54:16.547Z,62.02
2022-09-30T18:56:46.578Z,61.79
2022-09-30T18:59:21.981Z,61.70
2022-09-30T19:01:54.027Z,61.56
2022-09-30T19:04:23.633Z,61.47
2022-09-30T19:06:53.194Z,61.52
2022-09-30T19:09:24.515Z,61.60
2022-09-30T19:11:54.115Z,61.42
2022-09-30T19:14:26.499Z,61.49
2022-09-30T19:16:56.383Z,61.45
2022-09-30T19:19:25.926Z,61.10
2022-09-30T19:22:00.259Z,61.24
2022-09-30T19:24:29.885Z,61.18
2022-09-30T19:26:59.416Z,61.16
2022-09-30T19:29:31.600Z,61.40
2022-09-30T19:32:01.194Z,61.42
2022-09-30T19:34:32.616Z,61.57
2022-09-30T19:37:02.300Z,61.68
2022-09-30T19:39:43.496Z,61.71
2022-09-30T19:42:18.311Z,62.01
2022-09-30T19:44:51.941Z,62.09
2022-09-30T19:47:21.591Z,62.39
2022-09-30T19:49:51.154Z,62.43
2022-09-30T19:52:22.330Z,62.49
2022-09-30T19:54:55.403Z,62.81
2022-09-30T19:57:26.431Z,62.94
2022-09-30T20:00:02.692Z,63.17
2022-09-30T20:02:38.894Z,63.30
2022-09-30T20:05:09.721Z,63.35
2022-09-30T20:07:39.710Z,63.47
2022-09-30T20:10:10.086Z,63.84
2022-09-30T20:12:39.627Z,63.95
2022-09-30T20:15:25.319Z,64.23
2022-09-30T20:17:56.976Z,64.59
2022-09-30T20:20:42.878Z,64.95
2022-09-30T20:23:12.499Z,65.18
2022-09-30T20:25:42.026Z,65.73
2022-09-30T20:28:11.852Z,66.02
2022-09-30T20:30:46.564Z,66.39
2022-09-30T20:33:17.669Z,66.69
2022-09-30T20:35:48.072Z,66.93
2022-09-30T20:38:24.865Z,67.01
2022-09-30T20:40:58.204Z,67.31
2022-09-30T20:43:30.356Z,67.30
2022-09-30T20:46:05.230Z,67.52
2022-09-30T20:48:36.088Z,67.24
2022-09-30T20:51:07.869Z,67.53
2022-09-30T20:53:39.712Z,67.55
2022-09-30T20:56:10.549Z,67.42
2022-09-30T20:58:40.437Z,67.69
2022-09-30T21:01:14.034Z,67.67
2022-09-30T21:03:50.219Z,67.51
2022-09-30T21:06:22.280Z,67.43
2022-09-30T21:08:51.879Z,67.24
2022-09-30T21:11:22.305Z,67.01
2022-09-30T21:13:53.553Z,66.79
2022-09-30T21:16:27.332Z,66.71
2022-09-30T21:18:56.997Z,66.57
2022-09-30T21:21:27.207Z,66.49
2022-09-30T21:23:59.322Z,66.33
2022-09-30T21:26:29.982Z,66.36
2022-09-30T21:29:00.054Z,66.20
2022-09-30T21:31:33.526Z,66.45
2022-09-30T21:34:03.917Z,66.29
2022-09-30T21:36:33.492Z,66.24
2022-09-30T21:39:04.281Z,66.22
2022-09-30T21:41:34.398Z,66.30
2022-09-30T21:44:04.506Z,66.32
2022-09-30T21:46:37.575Z,66.48
2022-09-30T21:49:09.609Z,66.41
2022-09-30T21:51:39.153Z,66.60
2022-09-30T21:54:13.402Z,66.52
2022-09-30T21:56:43.201Z,66.65
2022-09-30T21:59:13.168Z,66.86
2022-09-30T22:01:45.363Z,66.75
2022-09-30T22:04:14.944Z,66.85
2022-09-30T22:06:45.414Z,66.85
2022-09-30T22:09:15.006Z,66.82
2022-09-30T22:11:44.597Z,66.82
2022-09-30T22:14:14.183Z,67.06
2022-09-30T22:16:46.340Z,67.03
2022-09-30T22:19:15.938Z,67.11
2022-09-30T22:21:45.482Z,67.19
2022-09-30T22:24:15.089Z,67.26
2022-09-30T22:26:45.103Z,67.29
2022-09-30T22:29:15.407Z,67.50
2022-09-30T22:31:47.588Z,67.41
2022-09-30T22:34:29.859Z,67.42
2022-09-30T22:37:11.920Z,67.53
2022-09-30T22:39:41.497Z,67.55
2022-09-30T22:42:11.032Z,67.64
2022-09-30T22:44:40.659Z,67.64
2022-09-30T22:47:14.283Z,67.67
2022-09-30T22:49:44.821Z,67.73
2022-09-30T22:52:14.393Z,67.66
2022-09-30T22:54:44.578Z,67.72
2022-09-30T22:57:14.160Z,67.69
2022-09-30T22:59:44.732Z,67.68
2022-09-30T23:02:17.143Z,67.54
2022-09-30T23:04:46.907Z,67.46
2022-09-30T23:07:16.465Z,67.57
2022-09-30T23:09:46.190Z,67.49
2022-09-30T23:12:15.793Z,67.42
2022-09-30T23:14:45.341Z,67.41
2022-09-30T23:17:17.695Z,67.44
2022-09-30T23:19:47.433Z,67.37
2022-09-30T23:22:18.684Z,67.43
2022-09-30T23:24:48.273Z,67.48
2022-09-30T23:27:17.871Z,67.31
2022-09-30T23:29:47.428Z,67.42
2022-09-30T23:32:34.675Z,67.34
2022-09-30T23:35:05.194Z,67.32
2022-09-30T23:37:35.001Z,67.31
2022-09-30T23:40:05.088Z,67.50
2022-09-30T23:42:34.717Z,67.48
2022-09-30T23:45:04.333Z,67.43
2022-09-30T23:47:36.974Z,67.56
2022-09-30T23:50:07.011Z,67.54
2022-09-30T23:52:36.643Z,67.40
2022-09-30T23:55:06.565Z,67.48
2022-09-30T23:57:36.246Z,67.40
